sensor_id;sensor_type;location;lat;lon;timestamp;P1;durP1;ratioP1;P2;durP2;ratioP2
19754;SDS011;10036;47.812;9.274;2022-10-16T00:02:18;3.97;;;2.40;;
19754;SDS011;10036;47.812;9.274;2022-10-16T00:04:45;3.80;;;2.88;;
19754;SDS011;10036;47.812;9.274;2022-10-16T00:07:12;5.40;;;3.17;;
19754;SDS011;10036;47.812;9.274;2022-10-16T00:09:38;7.70;;;4.10;;
19754;SDS011;10036;47.812;9.274;2022-10-16T00:12:05;10.07;;;3.83;;
19754;SDS011;10036;47.812;9.274;2022-10-16T00:14:32;5.18;;;3.75;;
19754;SDS011;10036;47.812;9.274;2022-10-16T00:16:59;6.13;;;3.53;;
19754;SDS011;10036;47.812;9.274;2022-10-16T00:19:27;8.88;;;3.58;;
19754;SDS011;10036;47.812;9.274;2022-10-16T00:21:55;4.43;;;3.10;;
19754;SDS011;10036;47.812;9.274;2022-10-16T00:24:22;5.55;;;3.13;;
19754;SDS011;10036;47.812;9.274;2022-10-16T00:26:49;3.88;;;3.00;;
19754;SDS011;10036;47.812;9.274;2022-10-16T00:29:16;4.65;;;2.88;;
19754;SDS011;10036;47.812;9.274;2022-10-16T00:31:43;6.25;;;3.30;;
19754;SDS011;10036;47.812;9.274;2022-10-16T00:34:09;7.75;;;3.35;;
19754;SDS011;10036;47.812;9.274;2022-10-16T00:36:38;6.07;;;3.38;;
19754;SDS011;10036;47.812;9.274;2022-10-16T00:39:05;7.13;;;3.50;;
19754;SDS011;10036;47.812;9.274;2022-10-16T00:41:32;6.95;;;3.58;;
19754;SDS011;10036;47.812;9.274;2022-10-16T00:44:00;5.93;;;3.72;;
19754;SDS011;10036;47.812;9.274;2022-10-16T00:46:28;7.78;;;3.72;;
19754;SDS011;10036;47.812;9.274;2022-10-16T00:49:00;7.65;;;3.70;;
19754;SDS011;10036;47.812;9.274;2022-10-16T00:51:30;6.93;;;3.50;;
19754;SDS011;10036;47.812;9.274;2022-10-16T00:54:00;4.28;;;3.13;;
19754;SDS011;10036;47.812;9.274;2022-10-16T00:56:30;5.65;;;3.20;;
19754;SDS011;10036;47.812;9.274;2022-10-16T00:58:58;4.90;;;3.50;;
19754;SDS011;10036;47.812;9.274;2022-10-16T01:01:28;11.38;;;3.30;;
19754;SDS011;10036;47.812;9.274;2022-10-16T01:03:54;7.75;;;2.70;;
19754;SDS011;10036;47.812;9.274;2022-10-16T01:06:23;3.95;;;3.05;;
19754;SDS011;10036;47.812;9.274;2022-10-16T01:08:55;7.47;;;2.80;;
19754;SDS011;10036;47.812;9.274;2022-10-16T01:11:32;6.30;;;2.60;;
19754;SDS011;10036;47.812;9.274;2022-10-16T01:14:08;5.43;;;2.63;;
19754;SDS011;10036;47.812;9.274;2022-10-16T01:16:42;5.00;;;2.50;;
19754;SDS011;10036;47.812;9.274;2022-10-16T01:19:13;4.65;;;2.70;;
19754;SDS011;10036;47.812;9.274;2022-10-16T01:21:46;8.13;;;3.10;;
19754;SDS011;10036;47.812;9.274;2022-10-16T01:24:17;5.38;;;2.97;;
19754;SDS011;10036;47.812;9.274;2022-10-16T01:27:07;5.30;;;4.72;;
19754;SDS011;10036;47.812;9.274;2022-10-16T01:29:39;6.13;;;5.38;;
19754;SDS011;10036;47.812;9.274;2022-10-16T01:32:11;12.85;;;7.38;;
19754;SDS011;10036;47.812;9.274;2022-10-16T01:34:46;15.27;;;8.13;;
19754;SDS011;10036;47.812;9.274;2022-10-16T01:37:20;11.40;;;7.88;;
19754;SDS011;10036;47.812;9.274;2022-10-16T01:39:53;8.43;;;5.78;;
19754;SDS011;10036;47.812;9.274;2022-10-16T01:42:26;8.23;;;5.60;;
19754;SDS011;10036;47.812;9.274;2022-10-16T01:44:57;8.80;;;5.95;;
19754;SDS011;10036;47.812;9.274;2022-10-16T01:47:25;11.23;;;5.55;;
19754;SDS011;10036;47.812;9.274;2022-10-16T01:49:56;6.88;;;4.88;;
19754;SDS011;10036;47.812;9.274;2022-10-16T01:52:25;4.60;;;3.60;;
19754;SDS011;10036;47.812;9.274;2022-10-16T01:54:54;5.50;;;3.13;;
19754;SDS011;10036;47.812;9.274;2022-10-16T01:57:23;5.15;;;3.22;;
19754;SDS011;10036;47.812;9.274;2022-10-16T01:59:53;8.88;;;4.07;;
19754;SDS011;10036;47.812;9.274;2022-10-16T02:02:24;6.55;;;3.35;;
19754;SDS011;10036;47.812;9.274;2022-10-16T02:04:55;7.20;;;3.75;;
19754;SDS011;10036;47.812;9.274;2022-10-16T02:07:25;4.60;;;4.05;;
19754;SDS011;10036;47.812;9.274;2022-10-16T02:09:51;9.27;;;3.90;;
19754;SDS011;10036;47.812;9.274;2022-10-16T02:12:19;4.25;;;3.10;;
19754;SDS011;10036;47.812;9.274;2022-10-16T02:14:53;6.10;;;3.67;;
19754;SDS011;10036;47.812;9.274;2022-10-16T02:17:20;9.80;;;3.63;;
19754;SDS011;10036;47.812;9.274;2022-10-16T02:19:48;9.55;;;3.88;;
19754;SDS011;10036;47.812;9.274;2022-10-16T02:22:19;7.15;;;4.13;;
19754;SDS011;10036;47.812;9.274;2022-10-16T02:24:51;8.98;;;4.05;;
19754;SDS011;10036;47.812;9.274;2022-10-16T02:27:22;9.05;;;4.97;;
19754;SDS011;10036;47.812;9.274;2022-10-16T02:29:55;6.85;;;3.83;;
19754;SDS011;10036;47.812;9.274;2022-10-16T02:32:27;6.97;;;3.60;;
19754;SDS011;10036;47.812;9.274;2022-10-16T02:34:57;6.43;;;3.60;;
19754;SDS011;10036;47.812;9.274;2022-10-16T02:37:25;6.40;;;3.75;;
19754;SDS011;10036;47.812;9.274;2022-10-16T02:39:53;5.18;;;3.90;;
19754;SDS011;10036;47.812;9.274;2022-10-16T02:42:26;8.63;;;3.33;;
19754;SDS011;10036;47.812;9.274;2022-10-16T02:44:56;5.75;;;4.13;;
19754;SDS011;10036;47.812;9.274;2022-10-16T02:47:22;7.95;;;4.32;;
19754;SDS011;10036;47.812;9.274;2022-10-16T02:49:49;5.03;;;4.00;;
19754;SDS011;10036;47.812;9.274;2022-10-16T02:52:16;8.77;;;4.88;;
19754;SDS011;10036;47.812;9.274;2022-10-16T02:54:43;11.55;;;4.35;;
19754;SDS011;10036;47.812;9.274;2022-10-16T02:57:10;5.00;;;3.95;;
19754;SDS011;10036;47.812;9.274;2022-10-16T02:59:37;8.63;;;4.22;;
19754;SDS011;10036;47.812;9.274;2022-10-16T03:02:05;5.97;;;3.72;;
19754;SDS011;10036;47.812;9.274;2022-10-16T03:04:32;6.45;;;3.85;;
19754;SDS011;10036;47.812;9.274;2022-10-16T03:06:58;5.68;;;3.70;;
19754;SDS011;10036;47.812;9.274;2022-10-16T03:09:25;3.95;;;3.50;;
19754;SDS011;10036;47.812;9.274;2022-10-16T03:11:52;8.15;;;3.60;;
19754;SDS011;10036;47.812;9.274;2022-10-16T03:14:19;7.50;;;3.47;;
19754;SDS011;10036;47.812;9.274;2022-10-16T03:16:46;7.93;;;3.20;;
19754;SDS011;10036;47.812;9.274;2022-10-16T03:19:15;10.38;;;2.97;;
19754;SDS011;10036;47.812;9.274;2022-10-16T03:21:42;5.32;;;3.35;;
19754;SDS011;10036;47.812;9.274;2022-10-16T03:24:09;6.20;;;3.38;;
19754;SDS011;10036;47.812;9.274;2022-10-16T03:26:36;4.25;;;3.10;;
19754;SDS011;10036;47.812;9.274;2022-10-16T03:29:03;5.18;;;3.20;;
19754;SDS011;10036;47.812;9.274;2022-10-16T03:31:30;3.65;;;2.95;;
19754;SDS011;10036;47.812;9.274;2022-10-16T03:33:57;11.82;;;3.85;;
19754;SDS011;10036;47.812;9.274;2022-10-16T03:36:25;5.45;;;3.60;;
19754;SDS011;10036;47.812;9.274;2022-10-16T03:38:52;5.60;;;3.13;;
19754;SDS011;10036;47.812;9.274;2022-10-16T03:41:19;4.15;;;3.33;;
19754;SDS011;10036;47.812;9.274;2022-10-16T03:43:46;9.48;;;5.38;;
19754;SDS011;10036;47.812;9.274;2022-10-16T03:46:12;7.32;;;4.10;;
19754;SDS011;10036;47.812;9.274;2022-10-16T03:48:40;9.70;;;4.63;;
19754;SDS011;10036;47.812;9.274;2022-10-16T03:51:07;7.63;;;3.60;;
19754;SDS011;10036;47.812;9.274;2022-10-16T03:53:35;7.20;;;3.50;;
19754;SDS011;10036;47.812;9.274;2022-10-16T03:56:02;5.80;;;3.45;;
19754;SDS011;10036;47.812;9.274;2022-10-16T03:58:28;4.22;;;3.88;;
19754;SDS011;10036;47.812;9.274;2022-10-16T04:00:55;5.13;;;3.83;;
19754;SDS011;10036;47.812;9.274;2022-10-16T04:03:22;7.70;;;4.20;;
19754;SDS011;10036;47.812;9.274;2022-10-16T04:05:49;4.88;;;3.30;;
19754;SDS011;10036;47.812;9.274;2022-10-16T04:08:16;4.93;;;3.60;;
19754;SDS011;10036;47.812;9.274;2022-10-16T04:10:44;8.30;;;3.70;;
19754;SDS011;10036;47.812;9.274;2022-10-16T04:13:11;7.00;;;3.60;;
19754;SDS011;10036;47.812;9.274;2022-10-16T04:15:38;7.38;;;3.30;;
19754;SDS011;10036;47.812;9.274;2022-10-16T04:18:05;10.10;;;3.90;;
19754;SDS011;10036;47.812;9.274;2022-10-16T04:20:32;3.67;;;3.30;;
19754;SDS011;10036;47.812;9.274;2022-10-16T04:23:00;7.63;;;3.33;;
19754;SDS011;10036;47.812;9.274;2022-10-16T04:25:27;4.05;;;3.53;;
19754;SDS011;10036;47.812;9.274;2022-10-16T04:27:55;6.20;;;2.97;;
19754;SDS011;10036;47.812;9.274;2022-10-16T04:30:23;4.20;;;3.10;;
19754;SDS011;10036;47.812;9.274;2022-10-16T04:32:50;8.10;;;3.38;;
19754;SDS011;10036;47.812;9.274;2022-10-16T04:35:17;7.82;;;2.90;;
19754;SDS011;10036;47.812;9.274;2022-10-16T04:37:44;6.97;;;2.83;;
19754;SDS011;10036;47.812;9.274;2022-10-16T04:40:11;5.25;;;2.65;;
19754;SDS011;10036;47.812;9.274;2022-10-16T04:42:38;3.20;;;2.60;;
19754;SDS011;10036;47.812;9.274;2022-10-16T04:45:07;5.30;;;2.70;;
19754;SDS011;10036;47.812;9.274;2022-10-16T04:47:34;6.75;;;2.60;;
19754;SDS011;10036;47.812;9.274;2022-10-16T04:50:01;10.98;;;2.58;;
19754;SDS011;10036;47.812;9.274;2022-10-16T04:52:28;4.93;;;2.80;;
19754;SDS011;10036;47.812;9.274;2022-10-16T04:54:56;11.13;;;3.03;;
19754;SDS011;10036;47.812;9.274;2022-10-16T04:57:26;5.28;;;2.60;;
19754;SDS011;10036;47.812;9.274;2022-10-16T04:59:53;3.83;;;2.70;;
19754;SDS011;10036;47.812;9.274;2022-10-16T05:02:21;6.10;;;2.60;;
19754;SDS011;10036;47.812;9.274;2022-10-16T05:04:48;4.70;;;2.30;;
19754;SDS011;10036;47.812;9.274;2022-10-16T05:07:15;6.57;;;2.53;;
19754;SDS011;10036;47.812;9.274;2022-10-16T05:09:42;4.68;;;2.33;;
19754;SDS011;10036;47.812;9.274;2022-10-16T05:12:08;3.95;;;2.45;;
19754;SDS011;10036;47.812;9.274;2022-10-16T05:14:35;7.63;;;2.60;;
19754;SDS011;10036;47.812;9.274;2022-10-16T05:17:02;5.93;;;3.28;;
19754;SDS011;10036;47.812;9.274;2022-10-16T05:19:31;5.50;;;4.50;;
19754;SDS011;10036;47.812;9.274;2022-10-16T05:21:57;8.30;;;5.43;;
19754;SDS011;10036;47.812;9.274;2022-10-16T05:24:25;9.57;;;7.63;;
19754;SDS011;10036;47.812;9.274;2022-10-16T05:26:52;10.93;;;8.05;;
19754;SDS011;10036;47.812;9.274;2022-10-16T05:29:19;11.75;;;8.38;;
19754;SDS011;10036;47.812;9.274;2022-10-16T05:31:46;12.88;;;10.05;;
19754;SDS011;10036;47.812;9.274;2022-10-16T05:34:15;12.82;;;9.80;;
19754;SDS011;10036;47.812;9.274;2022-10-16T05:36:44;13.18;;;9.70;;
19754;SDS011;10036;47.812;9.274;2022-10-16T05:39:11;12.82;;;10.40;;
19754;SDS011;10036;47.812;9.274;2022-10-16T05:41:38;15.27;;;11.10;;
19754;SDS011;10036;47.812;9.274;2022-10-16T05:44:05;14.20;;;12.65;;
19754;SDS011;10036;47.812;9.274;2022-10-16T05:46:32;14.68;;;11.50;;
19754;SDS011;10036;47.812;9.274;2022-10-16T05:48:59;13.80;;;9.48;;
19754;SDS011;10036;47.812;9.274;2022-10-16T05:51:26;10.95;;;9.30;;
19754;SDS011;10036;47.812;9.274;2022-10-16T05:53:54;10.85;;;7.70;;
19754;SDS011;10036;47.812;9.274;2022-10-16T05:56:21;8.57;;;6.40;;
19754;SDS011;10036;47.812;9.274;2022-10-16T05:58:48;10.30;;;5.15;;
19754;SDS011;10036;47.812;9.274;2022-10-16T06:01:16;6.00;;;4.07;;
19754;SDS011;10036;47.812;9.274;2022-10-16T06:03:45;3.70;;;3.30;;
19754;SDS011;10036;47.812;9.274;2022-10-16T06:06:13;3.45;;;3.15;;
19754;SDS011;10036;47.812;9.274;2022-10-16T06:08:41;5.45;;;2.95;;
19754;SDS011;10036;47.812;9.274;2022-10-16T06:11:12;4.50;;;2.67;;
19754;SDS011;10036;47.812;9.274;2022-10-16T06:13:40;8.05;;;3.25;;
19754;SDS011;10036;47.812;9.274;2022-10-16T06:16:07;3.35;;;2.50;;
19754;SDS011;10036;47.812;9.274;2022-10-16T06:18:35;6.82;;;2.88;;
19754;SDS011;10036;47.812;9.274;2022-10-16T06:21:06;3.95;;;2.53;;
19754;SDS011;10036;47.812;9.274;2022-10-16T06:23:34;4.50;;;2.72;;
19754;SDS011;10036;47.812;9.274;2022-10-16T06:26:04;8.35;;;2.78;;
19754;SDS011;10036;47.812;9.274;2022-10-16T06:28:33;3.17;;;2.38;;
19754;SDS011;10036;47.812;9.274;2022-10-16T06:31:00;3.75;;;2.95;;
19754;SDS011;10036;47.812;9.274;2022-10-16T06:33:27;3.88;;;2.70;;
19754;SDS011;10036;47.812;9.274;2022-10-16T06:35:59;4.70;;;2.90;;
19754;SDS011;10036;47.812;9.274;2022-10-16T06:38:27;4.53;;;2.80;;
19754;SDS011;10036;47.812;9.274;2022-10-16T06:40:54;3.70;;;2.30;;
19754;SDS011;10036;47.812;9.274;2022-10-16T06:43:21;2.50;;;2.30;;
19754;SDS011;10036;47.812;9.274;2022-10-16T06:45:51;7.05;;;3.03;;
19754;SDS011;10036;47.812;9.274;2022-10-16T06:48:18;11.02;;;7.72;;
19754;SDS011;10036;47.812;9.274;2022-10-16T06:50:54;10.95;;;7.40;;
19754;SDS011;10036;47.812;9.274;2022-10-16T06:53:22;12.32;;;8.05;;
19754;SDS011;10036;47.812;9.274;2022-10-16T06:55:49;13.10;;;9.63;;
19754;SDS011;10036;47.812;9.274;2022-10-16T06:58:16;12.85;;;10.30;;
19754;SDS011;10036;47.812;9.274;2022-10-16T07:00:43;13.05;;;9.77;;
19754;SDS011;10036;47.812;9.274;2022-10-16T07:03:11;11.18;;;7.78;;
19754;SDS011;10036;47.812;9.274;2022-10-16T07:05:38;8.77;;;4.53;;
19754;SDS011;10036;47.812;9.274;2022-10-16T07:08:06;4.60;;;3.40;;
19754;SDS011;10036;47.812;9.274;2022-10-16T07:10:33;7.38;;;3.20;;
19754;SDS011;10036;47.812;9.274;2022-10-16T07:13:00;7.85;;;3.13;;
19754;SDS011;10036;47.812;9.274;2022-10-16T07:15:27;2.88;;;2.60;;
19754;SDS011;10036;47.812;9.274;2022-10-16T07:17:54;4.28;;;3.63;;
19754;SDS011;10036;47.812;9.274;2022-10-16T07:20:22;3.92;;;3.40;;
19754;SDS011;10036;47.812;9.274;2022-10-16T07:22:49;4.85;;;3.70;;
19754;SDS011;10036;47.812;9.274;2022-10-16T07:25:16;6.43;;;4.20;;
19754;SDS011;10036;47.812;9.274;2022-10-16T07:27:43;4.57;;;3.67;;
19754;SDS011;10036;47.812;9.274;2022-10-16T07:30:10;5.45;;;4.18;;
19754;SDS011;10036;47.812;9.274;2022-10-16T07:32:36;5.95;;;4.30;;
19754;SDS011;10036;47.812;9.274;2022-10-16T07:35:04;5.60;;;3.92;;
19754;SDS011;10036;47.812;9.274;2022-10-16T07:37:32;4.00;;;3.58;;
19754;SDS011;10036;47.812;9.274;2022-10-16T07:39:59;5.55;;;4.38;;
19754;SDS011;10036;47.812;9.274;2022-10-16T07:42:26;6.47;;;4.20;;
19754;SDS011;10036;47.812;9.274;2022-10-16T07:44:53;4.28;;;3.83;;
19754;SDS011;10036;47.812;9.274;2022-10-16T07:47:20;3.28;;;3.05;;
19754;SDS011;10036;47.812;9.274;2022-10-16T07:49:47;4.15;;;2.50;;
19754;SDS011;10036;47.812;9.274;2022-10-16T07:52:14;2.45;;;2.15;;
19754;SDS011;10036;47.812;9.274;2022-10-16T07:54:42;3.13;;;2.20;;
19754;SDS011;10036;47.812;9.274;2022-10-16T07:57:09;2.17;;;2.00;;
19754;SDS011;10036;47.812;9.274;2022-10-16T07:59:36;2.75;;;2.42;;
19754;SDS011;10036;47.812;9.274;2022-10-16T08:02:03;3.63;;;2.30;;
19754;SDS011;10036;47.812;9.274;2022-10-16T08:04:30;6.45;;;2.15;;
19754;SDS011;10036;47.812;9.274;2022-10-16T08:06:57;2.72;;;2.10;;
19754;SDS011;10036;47.812;9.274;2022-10-16T08:09:23;4.10;;;2.30;;
19754;SDS011;10036;47.812;9.274;2022-10-16T08:11:52;3.40;;;2.00;;
19754;SDS011;10036;47.812;9.274;2022-10-16T08:14:18;3.90;;;2.15;;
19754;SDS011;10036;47.812;9.274;2022-10-16T08:16:45;2.40;;;1.92;;
19754;SDS011;10036;47.812;9.274;2022-10-16T08:19:12;5.03;;;2.10;;
19754;SDS011;10036;47.812;9.274;2022-10-16T08:21:40;6.55;;;3.17;;
19754;SDS011;10036;47.812;9.274;2022-10-16T08:24:07;5.50;;;3.60;;
19754;SDS011;10036;47.812;9.274;2022-10-16T08:26:34;10.15;;;3.22;;
19754;SDS011;10036;47.812;9.274;2022-10-16T08:29:02;4.68;;;2.75;;
19754;SDS011;10036;47.812;9.274;2022-10-16T08:31:29;4.60;;;2.20;;
19754;SDS011;10036;47.812;9.274;2022-10-16T08:33:56;2.85;;;2.10;;
19754;SDS011;10036;47.812;9.274;2022-10-16T08:36:22;4.28;;;1.80;;
19754;SDS011;10036;47.812;9.274;2022-10-16T08:38:49;2.00;;;1.90;;
19754;SDS011;10036;47.812;9.274;2022-10-16T08:41:32;3.05;;;2.05;;
19754;SDS011;10036;47.812;9.274;2022-10-16T08:47:14;5.97;;;2.10;;
19754;SDS011;10036;47.812;9.274;2022-10-16T08:49:51;4.65;;;1.70;;
19754;SDS011;10036;47.812;9.274;2022-10-16T08:52:23;2.42;;;2.00;;
19754;SDS011;10036;47.812;9.274;2022-10-16T08:54:55;5.88;;;1.80;;
19754;SDS011;10036;47.812;9.274;2022-10-16T08:57:24;3.22;;;1.90;;
19754;SDS011;10036;47.812;9.274;2022-10-16T08:59:53;2.38;;;1.60;;
19754;SDS011;10036;47.812;9.274;2022-10-16T09:02:27;3.40;;;1.95;;
19754;SDS011;10036;47.812;9.274;2022-10-16T09:05:00;2.92;;;1.70;;
19754;SDS011;10036;47.812;9.274;2022-10-16T09:07:38;4.57;;;2.30;;
19754;SDS011;10036;47.812;9.274;2022-10-16T09:10:13;3.80;;;2.15;;
19754;SDS011;10036;47.812;9.274;2022-10-16T09:12:54;2.42;;;1.83;;
19754;SDS011;10036;47.812;9.274;2022-10-16T09:15:27;2.17;;;1.60;;
19754;SDS011;10036;47.812;9.274;2022-10-16T09:17:59;2.08;;;1.50;;
19754;SDS011;10036;47.812;9.274;2022-10-16T09:20:33;1.80;;;1.70;;
19754;SDS011;10036;47.812;9.274;2022-10-16T09:23:12;2.90;;;1.40;;
19754;SDS011;10036;47.812;9.274;2022-10-16T09:25:43;2.83;;;1.30;;
19754;SDS011;10036;47.812;9.274;2022-10-16T09:28:12;3.00;;;1.30;;
19754;SDS011;10036;47.812;9.274;2022-10-16T09:30:41;2.67;;;1.60;;
19754;SDS011;10036;47.812;9.274;2022-10-16T09:33:09;10.25;;;1.45;;
19754;SDS011;10036;47.812;9.274;2022-10-16T09:35:37;1.83;;;1.48;;
19754;SDS011;10036;47.812;9.274;2022-10-16T09:38:06;4.93;;;1.58;;
19754;SDS011;10036;47.812;9.274;2022-10-16T09:40:35;2.67;;;1.55;;
19754;SDS011;10036;47.812;9.274;2022-10-16T09:43:10;2.15;;;1.80;;
19754;SDS011;10036;47.812;9.274;2022-10-16T09:45:54;3.67;;;1.50;;
19754;SDS011;10036;47.812;9.274;2022-10-16T09:48:22;1.80;;;1.70;;
19754;SDS011;10036;47.812;9.274;2022-10-16T09:50:56;1.77;;;1.55;;
19754;SDS011;10036;47.812;9.274;2022-10-16T09:53:23;2.15;;;1.83;;
19754;SDS011;10036;47.812;9.274;2022-10-16T09:56:03;2.28;;;1.60;;
19754;SDS011;10036;47.812;9.274;2022-10-16T09:58:31;4.03;;;1.65;;
19754;SDS011;10036;47.812;9.274;2022-10-16T10:01:00;5.75;;;1.40;;
19754;SDS011;10036;47.812;9.274;2022-10-16T10:03:33;1.75;;;1.48;;
19754;SDS011;10036;47.812;9.274;2022-10-16T10:06:05;2.78;;;1.20;;
19754;SDS011;10036;47.812;9.274;2022-10-16T10:08:52;4.47;;;1.40;;
19754;SDS011;10036;47.812;9.274;2022-10-16T10:11:42;1.73;;;1.30;;
19754;SDS011;10036;47.812;9.274;2022-10-16T10:14:21;1.95;;;1.40;;
19754;SDS011;10036;47.812;9.274;2022-10-16T10:16:53;2.45;;;1.50;;
19754;SDS011;10036;47.812;9.274;2022-10-16T10:19:39;1.55;;;1.40;;
19754;SDS011;10036;47.812;9.274;2022-10-16T10:22:15;2.50;;;1.40;;
19754;SDS011;10036;47.812;9.274;2022-10-16T10:24:57;1.80;;;1.30;;
19754;SDS011;10036;47.812;9.274;2022-10-16T10:27:36;5.60;;;1.50;;
19754;SDS011;10036;47.812;9.274;2022-10-16T10:30:11;6.00;;;1.60;;
19754;SDS011;10036;47.812;9.274;2022-10-16T10:32:47;4.88;;;1.45;;
19754;SDS011;10036;47.812;9.274;2022-10-16T10:35:21;2.80;;;1.25;;
19754;SDS011;10036;47.812;9.274;2022-10-16T10:37:58;3.13;;;1.60;;
19754;SDS011;10036;47.812;9.274;2022-10-16T10:40:38;1.40;;;1.30;;
19754;SDS011;10036;47.812;9.274;2022-10-16T10:43:13;3.53;;;1.50;;
19754;SDS011;10036;47.812;9.274;2022-10-16T10:45:52;4.28;;;1.60;;
19754;SDS011;10036;47.812;9.274;2022-10-16T10:48:30;2.03;;;1.20;;
19754;SDS011;10036;47.812;9.274;2022-10-16T10:51:19;3.28;;;1.75;;
19754;SDS011;10036;47.812;9.274;2022-10-16T10:53:50;1.42;;;1.33;;
19754;SDS011;10036;47.812;9.274;2022-10-16T10:56:34;4.90;;;1.60;;
19754;SDS011;10036;47.812;9.274;2022-10-16T10:59:28;2.97;;;1.50;;
19754;SDS011;10036;47.812;9.274;2022-10-16T11:02:04;2.75;;;1.33;;
19754;SDS011;10036;47.812;9.274;2022-10-16T11:04:45;1.42;;;1.33;;
19754;SDS011;10036;47.812;9.274;2022-10-16T11:07:24;2.20;;;1.65;;
19754;SDS011;10036;47.812;9.274;2022-10-16T11:09:55;3.65;;;1.30;;
19754;SDS011;10036;47.812;9.274;2022-10-16T11:12:24;4.60;;;1.30;;
19754;SDS011;10036;47.812;9.274;2022-10-16T11:14:55;1.70;;;1.58;;
19754;SDS011;10036;47.812;9.274;2022-10-16T11:17:28;2.42;;;1.17;;
19754;SDS011;10036;47.812;9.274;2022-10-16T11:20:03;1.67;;;1.30;;
19754;SDS011;10036;47.812;9.274;2022-10-16T11:22:37;1.27;;;1.13;;
19754;SDS011;10036;47.812;9.274;2022-10-16T11:25:11;1.88;;;1.40;;
19754;SDS011;10036;47.812;9.274;2022-10-16T11:27:41;1.98;;;1.27;;
19754;SDS011;10036;47.812;9.274;2022-10-16T11:30:14;5.65;;;1.25;;
19754;SDS011;10036;47.812;9.274;2022-10-16T11:32:49;8.55;;;1.55;;
19754;SDS011;10036;47.812;9.274;2022-10-16T11:35:30;3.47;;;1.35;;
19754;SDS011;10036;47.812;9.274;2022-10-16T11:38:07;2.20;;;1.40;;
19754;SDS011;10036;47.812;9.274;2022-10-16T11:40:41;1.75;;;1.40;;
19754;SDS011;10036;47.812;9.274;2022-10-16T11:43:13;2.45;;;1.30;;
19754;SDS011;10036;47.812;9.274;2022-10-16T11:45:43;1.52;;;1.42;;
19754;SDS011;10036;47.812;9.274;2022-10-16T11:48:17;4.05;;;1.33;;
19754;SDS011;10036;47.812;9.274;2022-10-16T11:50:52;3.85;;;1.40;;
19754;SDS011;10036;47.812;9.274;2022-10-16T11:53:22;1.58;;;1.27;;
19754;SDS011;10036;47.812;9.274;2022-10-16T11:55:56;6.03;;;1.65;;
19754;SDS011;10036;47.812;9.274;2022-10-16T11:58:25;3.97;;;1.50;;
19754;SDS011;10036;47.812;9.274;2022-10-16T12:00:58;2.78;;;1.35;;
19754;SDS011;10036;47.812;9.274;2022-10-16T12:03:34;5.85;;;1.55;;
19754;SDS011;10036;47.812;9.274;2022-10-16T12:06:11;1.88;;;1.50;;
19754;SDS011;10036;47.812;9.274;2022-10-16T12:08:46;2.17;;;1.20;;
19754;SDS011;10036;47.812;9.274;2022-10-16T12:11:22;2.03;;;1.40;;
19754;SDS011;10036;47.812;9.274;2022-10-16T12:14:03;2.75;;;1.27;;
19754;SDS011;10036;47.812;9.274;2022-10-16T12:16:51;4.32;;;1.20;;
19754;SDS011;10036;47.812;9.274;2022-10-16T12:19:20;2.30;;;1.30;;
19754;SDS011;10036;47.812;9.274;2022-10-16T12:21:49;2.75;;;1.42;;
19754;SDS011;10036;47.812;9.274;2022-10-16T12:24:22;2.08;;;1.30;;
19754;SDS011;10036;47.812;9.274;2022-10-16T12:26:57;5.03;;;1.10;;
19754;SDS011;10036;47.812;9.274;2022-10-16T12:29:28;2.90;;;1.30;;
19754;SDS011;10036;47.812;9.274;2022-10-16T12:32:01;1.67;;;1.33;;
19754;SDS011;10036;47.812;9.274;2022-10-16T12:34:32;2.47;;;1.30;;
19754;SDS011;10036;47.812;9.274;2022-10-16T12:37:14;3.38;;;1.42;;
19754;SDS011;10036;47.812;9.274;2022-10-16T12:39:46;1.27;;;1.25;;
19754;SDS011;10036;47.812;9.274;2022-10-16T12:42:19;1.70;;;1.25;;
19754;SDS011;10036;47.812;9.274;2022-10-16T12:44:58;2.72;;;1.30;;
19754;SDS011;10036;47.812;9.274;2022-10-16T12:47:35;2.33;;;1.10;;
19754;SDS011;10036;47.812;9.274;2022-10-16T12:50:03;1.63;;;1.30;;
19754;SDS011;10036;47.812;9.274;2022-10-16T12:52:50;3.28;;;1.30;;
19754;SDS011;10036;47.812;9.274;2022-10-16T12:55:17;1.25;;;1.17;;
19754;SDS011;10036;47.812;9.274;2022-10-16T12:57:50;1.42;;;1.33;;
19754;SDS011;10036;47.812;9.274;2022-10-16T13:00:48;3.35;;;1.30;;
19754;SDS011;10036;47.812;9.274;2022-10-16T13:03:25;1.52;;;1.20;;
19754;SDS011;10036;47.812;9.274;2022-10-16T13:06:13;2.92;;;1.50;;
19754;SDS011;10036;47.812;9.274;2022-10-16T13:09:05;1.60;;;1.20;;
19754;SDS011;10036;47.812;9.274;2022-10-16T13:12:07;2.42;;;1.20;;
19754;SDS011;10036;47.812;9.274;2022-10-16T13:17:35;3.25;;;1.13;;
19754;SDS011;10036;47.812;9.274;2022-10-16T13:20:09;2.28;;;1.00;;
19754;SDS011;10036;47.812;9.274;2022-10-16T13:22:45;3.13;;;1.25;;
19754;SDS011;10036;47.812;9.274;2022-10-16T13:25:24;1.15;;;1.00;;
19754;SDS011;10036;47.812;9.274;2022-10-16T13:27:59;3.08;;;1.20;;
19754;SDS011;10036;47.812;9.274;2022-10-16T13:30:28;2.58;;;1.38;;
19754;SDS011;10036;47.812;9.274;2022-10-16T13:32:58;2.63;;;1.10;;
19754;SDS011;10036;47.812;9.274;2022-10-16T13:35:29;1.30;;;1.20;;
19754;SDS011;10036;47.812;9.274;2022-10-16T13:38:04;1.15;;;1.10;;
19754;SDS011;10036;47.812;9.274;2022-10-16T13:40:33;4.03;;;1.13;;
19754;SDS011;10036;47.812;9.274;2022-10-16T13:43:00;2.45;;;1.25;;
19754;SDS011;10036;47.812;9.274;2022-10-16T13:45:27;2.92;;;1.10;;
19754;SDS011;10036;47.812;9.274;2022-10-16T13:48:01;2.28;;;1.17;;
19754;SDS011;10036;47.812;9.274;2022-10-16T13:50:29;1.20;;;1.10;;
19754;SDS011;10036;47.812;9.274;2022-10-16T13:53:03;0.95;;;0.95;;
19754;SDS011;10036;47.812;9.274;2022-10-16T13:55:31;1.00;;;1.00;;
19754;SDS011;10036;47.812;9.274;2022-10-16T13:58:06;1.98;;;1.10;;
19754;SDS011;10036;47.812;9.274;2022-10-16T14:00:34;1.80;;;0.93;;
19754;SDS011;10036;47.812;9.274;2022-10-16T14:03:02;2.53;;;1.00;;
19754;SDS011;10036;47.812;9.274;2022-10-16T14:05:31;0.90;;;0.90;;
19754;SDS011;10036;47.812;9.274;2022-10-16T14:07:59;2.40;;;1.90;;
19754;SDS011;10036;47.812;9.274;2022-10-16T14:10:27;2.30;;;2.00;;
19754;SDS011;10036;47.812;9.274;2022-10-16T14:12:59;1.42;;;1.33;;
19754;SDS011;10036;47.812;9.274;2022-10-16T14:15:30;1.33;;;1.23;;
19754;SDS011;10036;47.812;9.274;2022-10-16T14:18:00;1.27;;;1.10;;
19754;SDS011;10036;47.812;9.274;2022-10-16T14:20:29;1.80;;;1.25;;
19754;SDS011;10036;47.812;9.274;2022-10-16T14:22:58;6.93;;;1.75;;
19754;SDS011;10036;47.812;9.274;2022-10-16T14:25:27;1.00;;;1.00;;
19754;SDS011;10036;47.812;9.274;2022-10-16T14:27:57;1.25;;;1.15;;
19754;SDS011;10036;47.812;9.274;2022-10-16T14:30:25;1.15;;;1.00;;
19754;SDS011;10036;47.812;9.274;2022-10-16T14:32:55;2.58;;;0.90;;
19754;SDS011;10036;47.812;9.274;2022-10-16T14:35:28;1.05;;;0.88;;
19754;SDS011;10036;47.812;9.274;2022-10-16T14:37:57;1.98;;;0.80;;
19754;SDS011;10036;47.812;9.274;2022-10-16T14:40:26;1.13;;;0.80;;
19754;SDS011;10036;47.812;9.274;2022-10-16T14:42:55;1.50;;;0.95;;
19754;SDS011;10036;47.812;9.274;2022-10-16T14:45:24;0.90;;;0.90;;
19754;SDS011;10036;47.812;9.274;2022-10-16T14:47:55;3.80;;;1.00;;
19754;SDS011;10036;47.812;9.274;2022-10-16T14:50:23;2.15;;;1.02;;
19754;SDS011;10036;47.812;9.274;2022-10-16T14:52:51;0.98;;;0.85;;
19754;SDS011;10036;47.812;9.274;2022-10-16T14:55:18;0.80;;;0.80;;
19754;SDS011;10036;47.812;9.274;2022-10-16T14:57:45;1.33;;;1.00;;
19754;SDS011;10036;47.812;9.274;2022-10-16T15:00:14;2.15;;;1.08;;
19754;SDS011;10036;47.812;9.274;2022-10-16T15:02:43;3.17;;;1.00;;
19754;SDS011;10036;47.812;9.274;2022-10-16T15:05:13;3.78;;;1.30;;
19754;SDS011;10036;47.812;9.274;2022-10-16T15:07:42;3.90;;;1.25;;
19754;SDS011;10036;47.812;9.274;2022-10-16T15:10:09;2.72;;;1.27;;
19754;SDS011;10036;47.812;9.274;2022-10-16T15:12:37;3.42;;;1.10;;